Time;durP1;ratioP1;P1;durP2;ratioP2;P2;SDS_P1;SDS_P2;PMS_P1;PMS_P2;Temp;Humidity;BMP_temperature;BMP_pressure;BME280_temperature;BME280_humidity;BME280_pressure;Samples;Min_cycle;Max_cycle;Signal;HPM_P1;HPM_P2
2022/09/21 00:00:10;;;;;;;9.05;5.28;;;;;;;10.04;100.00;102444.31;5236264;28;20458;-65
2022/09/21 00:02:41;;;;;;;7.20;4.72;;;;;;;10.01;100.00;102442.66;5232709;28;20025;-65
2022/09/21 00:05:13;;;;;;;8.05;4.93;;;;;;;10.09;100.00;102446.78;5235145;28;20024;-65
2022/09/21 00:07:44;;;;;;;10.80;5.63;;;;;;;9.90;100.00;102444.13;5231716;28;20124;-65
2022/09/21 00:10:16;;;;;;;9.90;5.18;;;;;;;9.86;100.00;102448.75;5238244;28;20519;-65
2022/09/21 00:12:48;;;;;;;6.93;5.20;;;;;;;9.85;100.00;102451.47;5234728;28;20021;-66
2022/09/21 00:15:19;;;;;;;9.02;5.05;;;;;;;9.79;100.00;102442.81;5230840;28;20028;-65
2022/09/21 00:17:55;;;;;;;8.60;5.00;;;;;;;9.79;100.00;102447.28;5225480;28;20029;-66
2022/09/21 00:20:27;;;;;;;7.28;5.18;;;;;;;9.64;100.00;102454.19;5232186;28;20025;-65
2022/09/21 00:22:59;;;;;;;6.60;5.03;;;;;;;9.61;100.00;102451.69;5219051;28;20028;-65
2022/09/21 00:25:30;;;;;;;7.93;5.20;;;;;;;9.61;100.00;102449.03;5225298;28;20052;-65
2022/09/21 00:28:02;;;;;;;7.53;5.20;;;;;;;9.52;100.00;102450.31;5233026;28;20041;-65
2022/09/21 00:30:33;;;;;;;9.20;5.28;;;;;;;9.53;100.00;102444.06;5224952;28;20021;-65
2022/09/21 00:33:05;;;;;;;7.97;5.50;;;;;;;9.56;100.00;102449.22;5233067;28;20026;-65
2022/09/21 00:35:37;;;;;;;10.30;5.10;;;;;;;9.56;100.00;102459.88;5237082;28;20431;-65
2022/09/21 00:38:08;;;;;;;10.30;5.38;;;;;;;9.49;100.00;102452.25;5228158;28;20025;-65
2022/09/21 00:40:39;;;;;;;11.30;6.40;;;;;;;9.47;100.00;102459.44;5231888;28;20464;-65
2022/09/21 00:43:13;;;;;;;9.68;5.30;;;;;;;9.42;100.00;102451.69;5233372;28;20095;-66
2022/09/21 00:45:47;;;;;;;7.67;5.27;;;;;;;9.42;100.00;102451.69;5226129;28;20063;-65
2022/09/21 00:48:19;;;;;;;7.93;5.55;;;;;;;9.35;100.00;102455.56;5232015;28;20050;-65
2022/09/21 00:50:54;;;;;;;9.27;5.90;;;;;;;9.38;100.00;102463.41;5232799;28;20486;-65
2022/09/21 00:53:27;;;;;;;9.93;5.20;;;;;;;9.37;100.00;102453.69;5231194;28;20021;-65
2022/09/21 00:56:01;;;;;;;8.63;5.30;;;;;;;9.22;100.00;102458.78;5242406;28;20165;-66
2022/09/21 00:58:43;;;;;;;10.10;5.50;;;;;;;9.21;100.00;102464.19;5233713;28;20037;-65
2022/09/21 01:01:15;;;;;;;8.32;5.53;;;;;;;9.27;100.00;102455.03;5232764;28;20360;-65
2022/09/21 01:03:49;;;;;;;9.35;5.18;;;;;;;9.35;100.00;102451.09;5243754;28;20118;-65
2022/09/21 01:06:21;;;;;;;9.02;5.53;;;;;;;9.21;100.00;102457.03;5222131;28;20036;-65
2022/09/21 01:08:55;;;;;;;9.52;5.85;;;;;;;9.17;100.00;102452.78;5239917;28;20036;-66
2022/09/21 01:11:58;;;;;;;8.57;5.53;;;;;;;9.25;100.00;102451.59;5231757;28;20028;-65
2022/09/21 01:15:08;;;;;;;11.40;5.90;;;;;;;9.15;100.00;102457.31;5234136;28;20703;-65
2022/09/21 01:17:55;;;;;;;8.48;5.45;;;;;;;9.16;100.00;102459.03;5250770;28;20060;-65
2022/09/21 01:20:45;;;;;;;9.50;5.90;;;;;;;9.18;100.00;102458.97;5234651;28;20034;-65
2022/09/21 01:23:44;;;;;;;11.70;6.50;;;;;;;9.13;100.00;102450.34;5230446;28;20117;-65
2022/09/21 01:26:21;;;;;;;11.07;5.85;;;;;;;9.13;100.00;102453.88;5228881;28;20029;-65
2022/09/21 01:29:05;;;;;;;10.00;5.75;;;;;;;9.07;100.00;102453.25;5231698;28;20382;-65
2022/09/21 01:31:57;;;;;;;8.40;6.20;;;;;;;9.22;100.00;102452.56;5231452;28;20375;-65
2022/09/21 01:34:53;;;;;;;10.60;6.40;;;;;;;9.16;100.00;102459.03;5232142;28;20117;-65
2022/09/21 01:37:33;;;;;;;10.13;6.07;;;;;;;9.26;100.00;102451.50;5230328;28;20545;-64
2022/09/21 01:40:13;;;;;;;10.45;5.72;;;;;;;9.11;100.00;102452.19;5246238;28;20029;-65
2022/09/21 01:42:48;;;;;;;9.07;6.13;;;;;;;9.05;100.00;102453.34;5230440;28;20029;-65
2022/09/21 01:45:28;;;;;;;9.07;5.38;;;;;;;9.17;100.00;102454.59;5222185;28;20542;-65
2022/09/21 01:48:00;;;;;;;6.90;5.53;;;;;;;9.31;100.00;102445.97;5233300;28;20478;-65
2022/09/21 01:50:39;;;;;;;8.38;5.35;;;;;;;9.14;100.00;102444.06;5230149;28;20021;-65
2022/09/21 01:53:18;;;;;;;10.10;6.20;;;;;;;9.16;100.00;102447.53;5237896;28;20064;-65
2022/09/21 01:55:58;;;;;;;8.65;5.93;;;;;;;9.18;100.00;102450.97;5237587;28;20513;-65
2022/09/21 01:59:08;;;;;;;10.07;5.70;;;;;;;9.19;100.00;102452.72;5233724;28;20563;-65
2022/09/21 02:01:48;;;;;;;8.52;5.80;;;;;;;9.08;100.00;102458.53;5252966;28;20038;-65
2022/09/21 02:04:19;;;;;;;8.07;5.53;;;;;;;9.04;100.00;102448.94;5234696;28;20036;-65
2022/09/21 02:06:51;;;;;;;8.70;5.35;;;;;;;9.02;100.00;102446.34;5229836;28;20475;-65
2022/09/21 02:09:24;;;;;;;8.48;5.70;;;;;;;8.97;100.00;102451.00;5237963;28;20041;-65
2022/09/21 02:11:57;;;;;;;9.30;6.07;;;;;;;8.99;100.00;102450.94;5228491;28;20530;-65
2022/09/21 02:14:32;;;;;;;9.02;5.63;;;;;;;8.99;100.00;102453.59;5233947;28;20038;-65
2022/09/21 02:17:26;;;;;;;9.05;6.00;;;;;;;9.01;100.00;102455.28;5232128;28;20088;-65
2022/09/21 02:20:14;;;;;;;9.10;5.28;;;;;;;9.10;100.00;102442.47;5233855;28;20029;-65
2022/09/21 02:23:17;;;;;;;9.13;5.32;;;;;;;8.99;100.00;102445.59;5236357;28;20111;-65
2022/09/21 02:25:58;;;;;;;7.68;5.40;;;;;;;8.98;100.00;102449.22;5239518;28;20017;-65
2022/09/21 02:28:38;;;;;;;9.38;5.38;;;;;;;8.94;100.00;102453.81;5230631;28;20151;-65
2022/09/21 02:31:28;;;;;;;8.52;4.93;;;;;;;9.10;100.00;102451.31;5232641;28;20774;-65
2022/09/21 02:34:37;;;;;;;6.85;5.47;;;;;;;9.02;100.00;102451.66;5236526;28;20038;-65
2022/09/21 02:37:18;;;;;;;9.00;4.93;;;;;;;8.93;100.00;102452.06;5261572;28;20409;-65
2022/09/21 02:40:21;;;;;;;7.85;4.93;;;;;;;8.96;100.00;102453.75;5255449;28;20562;-65
2022/09/21 02:42:57;;;;;;;7.63;4.65;;;;;;;8.78;100.00;102447.41;5232582;28;20503;-65
2022/09/21 02:45:41;;;;;;;7.80;5.07;;;;;;;8.77;100.00;102445.69;5240218;28;20057;-65
2022/09/21 02:48:17;;;;;;;9.23;5.18;;;;;;;8.71;100.00;102441.50;5231942;28;20469;-65
2022/09/21 02:50:56;;;;;;;8.23;4.88;;;;;;;8.64;100.00;102445.34;5247721;28;20032;-65
2022/09/21 02:53:35;;;;;;;9.13;5.00;;;;;;;8.59;100.00;102440.25;5235900;28;20025;-65
2022/09/21 02:56:08;;;;;;;7.78;4.70;;;;;;;8.52;100.00;102435.25;5241809;28;20474;-65
2022/09/21 02:58:47;;;;;;;8.75;4.70;;;;;;;8.50;100.00;102437.97;5238661;28;20100;-65
2022/09/21 03:01:20;;;;;;;7.45;5.32;;;;;;;8.47;100.00;102437.22;5238985;28;20037;-65
2022/09/21 03:03:51;;;;;;;7.80;5.25;;;;;;;8.43;100.00;102437.34;5237519;28;20033;-65
2022/09/21 03:06:23;;;;;;;9.10;5.20;;;;;;;8.44;100.00;102448.88;5228857;28;20107;-65
2022/09/21 03:08:56;;;;;;;9.38;5.13;;;;;;;8.39;100.00;102445.50;5240830;28;20058;-65
2022/09/21 03:11:28;;;;;;;7.30;5.00;;;;;;;8.36;100.00;102446.50;5235341;28;20113;-65
2022/09/21 03:13:59;;;;;;;11.07;4.88;;;;;;;8.35;100.00;102446.53;5241034;28;20528;-65
2022/09/21 03:16:30;;;;;;;10.27;4.45;;;;;;;8.30;100.00;102446.72;5239815;28;20033;-65
2022/09/21 03:19:01;;;;;;;7.32;4.43;;;;;;;8.33;100.00;102451.06;5237200;28;20037;-64
2022/09/21 03:21:33;;;;;;;7.35;4.30;;;;;;;8.34;100.00;102442.13;5235699;28;20505;-65
2022/09/21 03:24:04;;;;;;;9.27;4.68;;;;;;;8.39;100.00;102445.50;5237007;28;20026;-65
2022/09/21 03:26:35;;;;;;;7.93;4.65;;;;;;;8.29;100.00;102444.16;5241731;28;20033;-65
2022/09/21 03:29:07;;;;;;;9.63;4.72;;;;;;;8.28;100.00;102448.56;5236650;28;20479;-66
2022/09/21 03:31:38;;;;;;;7.20;4.53;;;;;;;8.28;100.00;102456.56;5232520;28;20026;-65
2022/09/21 03:34:10;;;;;;;10.70;4.85;;;;;;;8.21;100.00;102455.97;5240481;28;20028;-65
2022/09/21 03:36:41;;;;;;;8.40;4.30;;;;;;;8.23;100.00;102455.91;5235149;28;20033;-65
2022/09/21 03:39:12;;;;;;;9.10;4.43;;;;;;;8.20;100.00;102461.34;5236326;28;20117;-65
2022/09/21 03:41:44;;;;;;;7.72;4.75;;;;;;;8.25;100.00;102456.69;5226681;28;20341;-65
2022/09/21 03:44:16;;;;;;;7.72;4.68;;;;;;;8.20;100.00;102464.84;5234276;28;20022;-66
2022/09/21 03:46:49;;;;;;;6.43;4.40;;;;;;;8.16;100.00;102463.25;5222394;28;20172;-65
2022/09/21 03:49:20;;;;;;;8.27;4.20;;;;;;;8.13;100.00;102465.16;5231617;28;20572;-65
2022/09/21 03:51:51;;;;;;;8.27;4.45;;;;;;;8.10;100.00;102467.97;5227058;28;20287;-65
2022/09/21 03:54:24;;;;;;;9.05;4.88;;;;;;;8.01;100.00;102466.50;5237629;28;20036;-65
2022/09/21 03:56:55;;;;;;;6.35;4.40;;;;;;;7.99;100.00;102469.22;5223089;28;20029;-65
2022/09/21 03:59:27;;;;;;;8.02;4.03;;;;;;;7.97;100.00;102475.53;5232157;28;20092;-65
2022/09/21 04:01:58;;;;;;;10.00;4.45;;;;;;;8.00;100.00;102472.78;5222206;28;20032;-65
2022/09/21 04:04:29;;;;;;;7.97;4.40;;;;;;;7.98;100.00;102464.84;5231331;28;20029;-64
2022/09/21 04:07:00;;;;;;;9.45;5.18;;;;;;;7.92;100.00;102465.09;5238921;28;20419;-65
2022/09/21 04:09:32;;;;;;;11.07;4.82;;;;;;;7.91;100.00;102471.31;5230980;28;20029;-65
2022/09/21 04:12:03;;;;;;;8.10;4.70;;;;;;;7.89;100.00;102472.31;5238104;28;20497;-65
2022/09/21 04:14:35;;;;;;;7.72;4.50;;;;;;;7.87;100.00;102467.06;5238775;28;20082;-65
2022/09/21 04:17:06;;;;;;;8.57;4.53;;;;;;;7.85;100.00;102469.78;5225198;28;20482;-65
2022/09/21 04:19:38;;;;;;;8.52;5.32;;;;;;;7.77;100.00;102466.56;5234724;28;20566;-66
2022/09/21 04:22:11;;;;;;;10.18;4.93;;;;;;;7.78;100.00;102475.38;5234609;28;20371;-65
2022/09/21 04:24:42;;;;;;;8.32;4.85;;;;;;;7.75;100.00;102464.91;5231505;28;20036;-65
2022/09/21 04:27:13;;;;;;;7.93;4.90;;;;;;;7.77;100.00;102473.66;5235824;28;20037;-64
2022/09/21 04:29:45;;;;;;;10.85;5.03;;;;;;;7.80;100.00;102471.75;5233972;28;20029;-65
2022/09/21 04:32:16;;;;;;;11.45;5.95;;;;;;;7.81;100.00;102465.50;5230495;28;20026;-65
2022/09/21 04:34:47;;;;;;;9.88;5.03;;;;;;;7.82;100.00;102474.34;5235958;28;20021;-65
2022/09/21 04:37:19;;;;;;;12.45;5.22;;;;;;;7.79;100.00;102470.03;5226642;28;20041;-65
2022/09/21 04:39:50;;;;;;;8.55;5.38;;;;;;;7.83;100.00;102476.09;5237226;28;20044;-65
2022/09/21 04:42:22;;;;;;;9.82;5.43;;;;;;;7.78;100.00;102470.06;5227249;28;20035;-65
2022/09/21 04:44:55;;;;;;;9.82;5.10;;;;;;;7.74;100.00;102477.28;5239872;28;20402;-65
2022/09/21 04:47:29;;;;;;;9.30;5.35;;;;;;;7.73;100.00;102480.88;5222966;28;20081;-65
2022/09/21 04:50:00;;;;;;;11.23;6.00;;;;;;;7.65;100.00;102480.28;5231340;28;20032;-65
2022/09/21 04:52:31;;;;;;;7.90;5.22;;;;;;;7.62;100.00;102478.63;5220233;28;20017;-65
2022/09/21 04:55:07;;;;;;;6.50;4.80;;;;;;;7.60;100.00;102482.28;5232220;28;20017;-65
2022/09/21 04:57:38;;;;;;;9.90;5.35;;;;;;;7.57;100.00;102477.94;5236775;28;20034;-65
2022/09/21 05:00:10;;;;;;;11.02;5.70;;;;;;;7.61;100.00;102484.88;5227897;28;20074;-65
2022/09/21 05:02:41;;;;;;;9.63;5.60;;;;;;;7.57;100.00;102482.38;5236906;28;20560;-65
2022/09/21 05:05:12;;;;;;;8.57;5.57;;;;;;;7.58;100.00;102484.13;5239898;28;20503;-65
2022/09/21 05:07:44;;;;;;;8.30;5.55;;;;;;;7.54;100.00;102485.16;5240825;28;20429;-66
2022/09/21 05:10:15;;;;;;;11.80;5.78;;;;;;;7.53;100.00;102476.31;5232018;28;20445;-65
2022/09/21 05:12:47;;;;;;;9.75;6.25;;;;;;;7.53;100.00;102484.28;5233589;28;20112;-65
2022/09/21 05:15:19;;;;;;;8.85;5.38;;;;;;;7.51;100.00;102485.28;5232561;28;20115;-65
2022/09/21 05:17:50;;;;;;;10.60;5.47;;;;;;;7.53;100.00;102489.59;5239108;28;20028;-65
2022/09/21 05:20:21;;;;;;;11.25;6.32;;;;;;;7.49;100.00;102489.78;5230581;28;20374;-65
2022/09/21 05:22:53;;;;;;;7.85;5.47;;;;;;;7.49;100.00;102495.09;5228873;28;20553;-66
2022/09/21 05:25:24;;;;;;;10.75;5.65;;;;;;;7.43;100.00;102493.53;5238322;28;20068;-65
2022/09/21 05:27:55;;;;;;;8.07;5.60;;;;;;;7.42;100.00;102484.69;5239354;28;20031;-65
2022/09/21 05:30:27;;;;;;;10.25;5.75;;;;;;;7.48;100.00;102491.56;5230413;28;20040;-65
2022/09/21 05:33:02;;;;;;;10.15;5.60;;;;;;;7.37;100.00;102501.72;5240447;28;20029;-65
2022/09/21 05:35:51;;;;;;;11.32;5.82;;;;;;;7.47;100.00;102500.44;5241920;28;20155;-65
2022/09/21 05:38:23;;;;;;;11.25;6.80;;;;;;;7.41;100.00;102498.88;5234896;28;20029;-65
2022/09/21 05:40:54;;;;;;;10.18;6.47;;;;;;;7.35;100.00;102503.56;5241328;28;20036;-65
2022/09/21 05:43:26;;;;;;;18.35;7.90;;;;;;;7.46;100.00;102509.34;5252275;28;20387;-65
2022/09/21 05:46:10;;;;;;;11.55;7.00;;;;;;;7.41;100.00;102506.84;5227666;28;20076;-66
2022/09/21 05:48:47;;;;;;;11.15;7.13;;;;;;;7.52;100.00;102510.94;5240723;28;20064;-65
2022/09/21 05:51:54;;;;;;;10.05;7.10;;;;;;;7.51;100.00;102503.88;5244558;28;20078;-65
2022/09/21 05:54:52;;;;;;;13.13;7.45;;;;;;;7.52;100.00;102513.59;5234009;28;20041;-65
2022/09/21 05:57:42;;;;;;;10.75;7.47;;;;;;;7.54;100.00;102511.72;5238176;28;20131;-65
2022/09/21 06:00:22;;;;;;;14.75;7.93;;;;;;;7.60;100.00;102519.47;5238520;28;20033;-65
2022/09/21 06:03:15;;;;;;;11.38;7.40;;;;;;;7.55;100.00;102519.63;5232656;28;20040;-65
2022/09/21 06:05:46;;;;;;;12.82;7.57;;;;;;;7.54;100.00;102517.91;5246566;28;20033;-66
2022/09/21 06:08:18;;;;;;;12.77;7.30;;;;;;;7.52;100.00;102521.56;5244885;28;20037;-65
2022/09/21 06:10:50;;;;;;;11.38;6.95;;;;;;;7.49;100.00;102519.00;5240650;28;20053;-65
2022/09/21 06:13:21;;;;;;;10.30;6.55;;;;;;;7.53;100.00;102523.25;5244174;28;20037;-65
2022/09/21 06:15:53;;;;;;;19.08;8.05;;;;;;;7.52;100.00;102526.88;5228547;28;20552;-65
2022/09/21 06:18:24;;;;;;;12.27;7.80;;;;;;;7.51;100.00;102528.63;5259676;28;20164;-65
2022/09/21 06:20:55;;;;;;;12.90;8.25;;;;;;;7.53;100.00;102524.13;5232458;28;20175;-64
2022/09/21 06:23:26;;;;;;;11.68;7.78;;;;;;;7.51;100.00;102533.94;5243099;28;20025;-65
2022/09/21 06:25:58;;;;;;;11.45;8.07;;;;;;;7.55;100.00;102527.59;5236216;28;20029;-64
2022/09/21 06:28:29;;;;;;;13.50;8.10;;;;;;;7.64;100.00;102527.25;5222481;28;20501;-64
2022/09/21 06:31:01;;;;;;;13.95;9.05;;;;;;;7.55;100.00;102529.38;5219159;28;20144;-64
2022/09/21 06:33:34;;;;;;;14.30;8.93;;;;;;;7.53;100.00;102528.56;5229947;28;20402;-64
2022/09/21 06:36:06;;;;;;;14.27;10.03;;;;;;;7.57;100.00;102522.22;5227155;28;20485;-64
2022/09/21 06:38:37;;;;;;;12.10;9.52;;;;;;;7.72;100.00;102526.09;5232808;28;20026;-65
2022/09/21 06:41:08;;;;;;;16.63;10.98;;;;;;;7.66;100.00;102529.84;5227570;28;20144;-65
2022/09/21 06:43:39;;;;;;;19.35;11.23;;;;;;;7.66;100.00;102529.84;5230374;28;20037;-65
2022/09/21 06:46:11;;;;;;;19.60;12.25;;;;;;;7.65;100.00;102529.00;5229027;28;20048;-65
2022/09/21 06:48:42;;;;;;;16.00;11.52;;;;;;;7.72;100.00;102526.09;5224037;28;20042;-65
2022/09/21 06:51:13;;;;;;;15.63;12.90;;;;;;;7.79;100.00;102530.28;5242123;28;20075;-65
2022/09/21 06:53:45;;;;;;;17.88;11.75;;;;;;;7.81;100.00;102531.09;5230733;28;20033;-65
2022/09/21 06:56:16;;;;;;;18.17;13.65;;;;;;;7.95;100.00;102522.56;5231279;28;20037;-65
2022/09/21 06:58:47;;;;;;;14.40;11.02;;;;;;;7.88;100.00;102531.69;5230060;28;20037;-65
2022/09/21 07:01:19;;;;;;;18.50;11.82;;;;;;;7.94;100.00;102529.69;5232831;28;20034;-65
2022/09/21 07:03:51;;;;;;;16.25;12.20;;;;;;;8.04;100.00;102535.53;5231312;28;20040;-66
2022/09/21 07:06:22;;;;;;;14.43;10.57;;;;;;;8.20;100.00;102539.28;5219756;28;20040;-65
2022/09/21 07:08:53;;;;;;;17.58;10.88;;;;;;;8.22;100.00;102536.59;5232838;28;20120;-65
2022/09/21 07:11:26;;;;;;;14.70;11.02;;;;;;;8.33;100.00;102533.50;5231303;28;20035;-65
2022/09/21 07:13:58;;;;;;;17.23;11.27;;;;;;;8.19;100.00;102534.06;5226276;28;20037;-65
2022/09/21 07:16:29;;;;;;;18.88;10.70;;;;;;;8.37;100.00;102537.78;5229774;28;20907;-65
2022/09/21 07:19:02;;;;;;;21.15;11.50;;;;;;;8.42;100.00;102541.16;5228933;28;20043;-65
2022/09/21 07:21:33;;;;;;;16.10;10.00;;;;;;;8.56;100.00;102535.28;5221199;28;20041;-65
2022/09/21 07:24:05;;;;;;;18.02;11.90;;;;;;;8.53;100.00;102530.06;5228450;28;20386;-65
2022/09/21 07:26:36;;;;;;;15.73;10.95;;;;;;;8.63;100.00;102529.63;5233724;28;20334;-65
2022/09/21 07:29:07;;;;;;;16.60;10.68;;;;;;;8.57;100.00;102535.22;5227969;28;20391;-65
2022/09/21 07:31:42;;;;;;;17.20;11.77;;;;;;;8.64;100.00;102533.16;5229544;28;20083;-65
2022/09/21 07:34:14;;;;;;;15.73;10.40;;;;;;;8.63;100.00;102526.97;5222491;28;20037;-65
2022/09/21 07:36:45;;;;;;;16.50;10.50;;;;;;;8.79;100.00;102539.66;5228214;28;20033;-65
2022/09/21 07:39:16;;;;;;;15.10;10.60;;;;;;;8.74;100.00;102525.66;5226179;28;20033;-65
2022/09/21 07:41:47;;;;;;;16.70;10.40;;;;;;;8.82;100.00;102527.06;5223388;28;21348;-65
2022/09/21 07:44:21;;;;;;;14.45;10.13;;;;;;;8.80;100.00;102534.25;5224519;28;20037;-65
2022/09/21 07:46:53;;;;;;;17.13;10.67;;;;;;;8.89;100.00;102532.13;5230734;28;20155;-64
2022/09/21 07:49:24;;;;;;;16.38;10.02;;;;;;;8.92;100.00;102532.88;5230037;28;20296;-64
2022/09/21 07:51:56;;;;;;;18.10;10.00;;;;;;;9.13;100.00;102519.59;5227161;28;20072;-65
2022/09/21 07:54:27;;;;;;;14.63;9.02;;;;;;;9.04;100.00;102523.50;5226266;28;20029;-65
2022/09/21 07:59:48;;;;;;;15.48;8.73;;;;;;;9.27;100.00;102524.28;5229992;28;20472;-65
2022/09/21 08:02:19;;;;;;;12.63;6.40;;;;;;;9.27;100.00;102518.97;5223744;28;20132;-64
2022/09/21 08:04:51;;;;;;;12.05;6.20;;;;;;;9.23;100.00;102518.22;5228639;28;20029;-65
2022/09/21 08:07:22;;;;;;;11.30;5.88;;;;;;;9.45;100.00;102518.13;5223850;28;20123;-65
2022/09/21 08:09:53;;;;;;;11.63;5.57;;;;;;;9.39;100.00;102518.41;5229475;28;20407;-65
2022/09/21 08:12:24;;;;;;;9.27;5.10;;;;;;;9.52;100.00;102516.94;5227821;28;20689;-65
2022/09/21 08:14:56;;;;;;;11.05;5.30;;;;;;;9.58;100.00;102524.63;5231534;28;20072;-65
2022/09/21 08:17:28;;;;;;;13.02;5.50;;;;;;;9.53;100.00;102520.44;5227499;28;20036;-65
2022/09/21 08:20:00;;;;;;;10.65;4.82;;;;;;;9.59;100.00;102513.06;5229706;28;20041;-65
2022/09/21 08:22:32;;;;;;;9.75;5.75;;;;;;;9.71;100.00;102519.63;5232179;28;20036;-64
2022/09/21 08:25:03;;;;;;;14.25;5.47;;;;;;;9.82;100.00;102527.13;5228895;28;20033;-65
2022/09/21 08:27:35;;;;;;;9.82;4.65;;;;;;;9.92;100.00;102523.09;5225920;28;20025;-65
2022/09/21 08:30:07;;;;;;;10.32;4.00;;;;;;;10.07;100.00;102524.19;5228437;28;20187;-64
2022/09/21 08:32:39;;;;;;;7.28;3.90;;;;;;;10.02;100.00;102527.03;5227102;28;20021;-65
2022/09/21 08:35:10;;;;;;;9.23;3.38;;;;;;;10.05;100.00;102527.84;5227662;28;20455;-65
2022/09/21 08:37:42;;;;;;;8.02;3.25;;;;;;;10.15;100.00;102529.16;5225764;28;20037;-65
2022/09/21 08:40:15;;;;;;;9.55;3.80;;;;;;;10.31;100.00;102535.50;5226981;28;20036;-65
2022/09/21 08:42:55;;;;;;;9.23;4.15;;;;;;;10.34;100.00;102530.03;5225692;28;20117;-65
2022/09/21 08:45:39;;;;;;;7.10;2.83;;;;;;;10.41;100.00;102525.25;5226603;28;20065;-64
2022/09/21 08:48:20;;;;;;;7.72;3.08;;;;;;;10.55;100.00;102529.91;5228375;28;20156;-64
2022/09/21 08:50:54;;;;;;;7.13;2.50;;;;;;;10.70;100.00;102530.94;5226400;28;20083;-65
2022/09/21 08:53:29;;;;;;;;;;;;;;;10.81;100.00;102531.28;5229903;28;20482;-65
2022/09/21 08:56:01;;;;;;;8.07;3.00;;;;;;;11.02;100.00;102534.66;5228487;28;20342;-65
2022/09/21 08:58:33;;;;;;;9.07;2.72;;;;;;;11.05;100.00;102536.31;5225175;28;21147;-66
2022/09/21 09:01:32;;;;;;;10.15;2.65;;;;;;;11.08;100.00;102537.00;5222634;28;20157;-65
2022/09/21 09:04:21;;;;;;;6.32;2.35;;;;;;;11.18;100.00;102534.75;5221497;28;20073;-65
2022/09/21 09:07:25;;;;;;;4.50;1.77;;;;;;;11.39;100.00;102535.44;5225871;28;20033;-64
2022/09/21 09:10:02;;;;;;;6.50;1.70;;;;;;;11.62;100.00;102538.66;5227562;28;20412;-65
2022/09/21 09:12:33;;;;;;;4.60;1.42;;;;;;;11.66;100.00;102538.44;5228252;28;20075;-65
2022/09/21 09:15:21;;;;;;;5.18;1.50;;;;;;;11.65;100.00;102541.19;5225854;28;20396;-65
2022/09/21 09:18:23;;;;;;;5.32;1.52;;;;;;;11.74;100.00;102552.25;5222666;28;20033;-65
2022/09/21 09:21:08;;;;;;;3.80;1.00;;;;;;;11.79;100.00;102543.97;5229420;28;20125;-65
2022/09/21 09:23:45;;;;;;;5.30;1.90;;;;;;;11.95;100.00;102544.91;5227814;28;20079;-66
2022/09/21 09:26:22;;;;;;;7.22;1.30;;;;;;;12.27;100.00;102539.56;5227067;28;20060;-65
2022/09/21 09:28:59;;;;;;;4.93;1.42;;;;;;;12.20;100.00;102551.56;5221717;28;20487;-65
2022/09/21 09:31:33;;;;;;;5.43;1.48;;;;;;;12.27;100.00;102549.38;5225536;28;20033;-65
2022/09/21 09:34:28;;;;;;;5.63;1.45;;;;;;;12.29;100.00;102543.03;5222782;28;20029;-65
2022/09/21 09:37:11;;;;;;;4.47;1.50;;;;;;;12.23;100.00;102542.50;5222827;28;20080;-65
2022/09/21 09:39:54;;;;;;;5.43;1.25;;;;;;;12.35;100.00;102548.03;5225427;28;20079;-65
2022/09/21 09:42:32;;;;;;;6.05;1.30;;;;;;;12.58;100.00;102542.28;5222969;28;20029;-65
2022/09/21 09:45:28;;;;;;;4.22;0.93;;;;;;;12.69;100.00;102545.22;5227372;28;20521;-65
2022/09/21 09:48:21;;;;;;;5.72;1.10;;;;;;;12.82;100.00;102543.53;5226665;28;20100;-65
2022/09/21 09:50:52;;;;;;;6.05;0.93;;;;;;;12.98;100.00;102543.47;5226981;28;20175;-65
2022/09/21 09:53:25;;;;;;;6.28;1.13;;;;;;;13.25;100.00;102545.47;5232223;28;20025;-66
2022/09/21 09:55:57;;;;;;;6.80;1.20;;;;;;;13.23;99.27;102542.91;5229789;28;20037;-66
2022/09/21 09:58:43;;;;;;;5.57;1.17;;;;;;;13.39;100.00;102542.84;5232898;28;20028;-65
2022/09/21 10:01:41;;;;;;;2.85;0.90;;;;;;;13.72;100.00;102541.72;5232308;28;20384;-65
2022/09/21 10:04:16;;;;;;;6.20;1.10;;;;;;;13.93;98.58;102542.19;5230786;28;20037;-66
2022/09/21 10:06:47;;;;;;;3.75;0.85;;;;;;;13.98;99.31;102547.25;5231480;28;20035;-66
2022/09/21 10:09:31;;;;;;;5.85;1.70;;;;;;;14.13;94.54;102546.25;5224037;28;20020;-66
2022/09/21 10:12:17;;;;;;;6.40;1.05;;;;;;;14.34;95.20;102548.53;5230182;28;20064;-66
2022/09/21 10:14:51;;;;;;;5.55;0.90;;;;;;;14.34;94.92;102543.16;5232129;28;20530;-66
2022/09/21 10:17:23;;;;;;;3.80;0.80;;;;;;;14.45;88.44;102535.25;5227668;28;20033;-66
2022/09/21 10:20:00;;;;;;;5.20;0.98;;;;;;;14.49;89.37;102544.81;5225651;28;20034;-66
2022/09/21 10:22:31;;;;;;;7.70;1.08;;;;;;;14.58;88.64;102538.88;5230818;28;20448;-65
2022/09/21 10:25:04;;;;;;;4.15;1.05;;;;;;;14.69;91.32;102538.19;5230116;28;20029;-66
2022/09/21 10:27:41;;;;;;;3.38;0.50;;;;;;;14.74;81.37;102537.84;5227764;28;20044;-66
2022/09/21 10:30:33;;;;;;;3.58;0.80;;;;;;;14.79;85.46;102533.91;5225428;28;20029;-66
2022/09/21 10:33:19;;;;;;;5.72;1.00;;;;;;;14.94;84.03;102533.81;5227862;28;20050;-66
2022/09/21 10:35:51;;;;;;;3.58;0.80;;;;;;;15.06;82.36;102535.69;5225129;28;20029;-66
2022/09/21 10:38:28;;;;;;;6.10;1.10;;;;;;;14.99;83.48;102534.38;5225925;28;20060;-65
2022/09/21 10:40:59;;;;;;;5.82;1.45;;;;;;;14.95;83.83;102528.34;5225353;28;20052;-65
2022/09/21 10:43:41;;;;;;;4.57;1.20;;;;;;;15.08;84.92;102531.06;5232142;28;20026;-65
2022/09/21 10:46:13;;;;;;;3.60;1.10;;;;;;;15.15;86.73;102528.78;5226695;28;20065;-65
2022/09/21 10:48:45;;;;;;;4.70;1.33;;;;;;;15.20;82.44;102526.66;5228681;28;20052;-66
2022/09/21 10:51:29;;;;;;;5.15;1.30;;;;;;;15.34;85.77;102517.63;5248728;28;20025;-66
2022/09/21 10:54:06;;;;;;;3.65;1.30;;;;;;;15.19;78.98;102517.75;5226435;28;20037;-66
2022/09/21 10:56:50;;;;;;;5.43;1.35;;;;;;;15.23;83.64;102518.38;5226568;28;20171;-66
2022/09/21 10:59:25;;;;;;;4.70;1.15;;;;;;;15.19;82.77;102524.94;5228197;28;20029;-66
2022/09/21 11:01:58;;;;;;;3.42;1.02;;;;;;;15.31;80.16;102532.16;5222270;28;20077;-66
2022/09/21 11:04:42;;;;;;;5.53;1.10;;;;;;;15.27;78.63;102530.66;5228024;28;20037;-66
2022/09/21 11:07:23;;;;;;;6.25;1.52;;;;;;;15.11;77.29;102520.09;5224909;28;20037;-66
2022/09/21 11:10:09;;;;;;;4.15;1.10;;;;;;;15.08;79.29;102526.53;5228752;28;20086;-66
2022/09/21 11:12:54;;;;;;;5.30;1.00;;;;;;;15.16;78.67;102517.94;5230345;28;20071;-66
2022/09/21 11:15:32;;;;;;;3.58;0.77;;;;;;;15.32;76.05;102527.63;5230854;28;20030;-66
2022/09/21 11:18:14;;;;;;;3.95;0.77;;;;;;;15.40;74.03;102527.97;5227753;28;20475;-66
2022/09/21 11:20:55;;;;;;;6.55;1.10;;;;;;;15.50;72.11;102526.34;5226831;28;20459;-66
2022/09/21 11:23:52;;;;;;;5.05;0.90;;;;;;;15.59;78.02;102520.31;5231191;28;20077;-66
2022/09/21 11:26:36;;;;;;;5.35;1.05;;;;;;;15.54;74.16;102524.31;5226826;28;20112;-66
2022/09/21 11:29:20;;;;;;;4.50;0.90;;;;;;;15.55;76.42;102523.31;5225797;28;20037;-66
2022/09/21 11:32:19;;;;;;;3.88;1.00;;;;;;;15.67;76.54;102515.25;5228630;28;20021;-66
2022/09/21 11:35:07;;;;;;;4.53;0.82;;;;;;;15.66;75.07;102521.56;5228345;28;20033;-66
2022/09/21 11:37:49;;;;;;;6.82;1.63;;;;;;;15.76;72.72;102521.84;5223234;28;20055;-66
2022/09/21 11:40:36;;;;;;;4.43;1.10;;;;;;;15.57;72.82;102521.38;5226960;28;20104;-66
2022/09/21 11:43:41;;;;;;;2.63;0.70;;;;;;;15.51;76.32;102511.06;5229142;28;20041;-66
2022/09/21 11:46:19;;;;;;;;;;;;;;;15.52;82.07;102508.25;5223524;28;20068;-66
2022/09/21 11:49:31;;;;;;;4.70;1.25;;;;;;;15.34;76.63;102501.47;5226138;28;19947;-66
2022/09/21 11:52:33;;;;;;;8.18;1.42;;;;;;;15.27;77.69;102498.38;5232091;28;20067;-66
2022/09/21 11:55:32;;;;;;;5.78;0.98;;;;;;;15.35;77.02;102497.84;5222476;28;20033;-66
2022/09/21 11:58:18;;;;;;;4.57;1.00;;;;;;;15.24;74.11;102494.06;5224995;28;20801;-66
2022/09/21 12:01:17;;;;;;;3.80;0.82;;;;;;;15.32;73.42;102504.28;5225694;28;20033;-66
2022/09/21 12:04:15;;;;;;;4.70;0.80;;;;;;;15.27;75.36;102499.22;5225770;28;20044;-66
2022/09/21 12:07:13;;;;;;;4.57;0.75;;;;;;;15.20;69.63;102494.38;5227138;28;20114;-67
2022/09/21 12:09:56;;;;;;;4.50;0.88;;;;;;;15.33;68.38;102495.25;5226855;28;20049;-66